createdAt,value
2023-09-18T00:00:13.442Z,9.82
2023-09-18T00:02:40.847Z,8.48
2023-09-18T00:05:08.040Z,10.03
2023-09-18T00:07:34.746Z,7.13
2023-09-18T00:10:01.384Z,7.13
2023-09-18T00:12:28.029Z,8.20
2023-09-18T00:14:54.683Z,9.20
2023-09-18T00:17:22.019Z,8.27
2023-09-18T00:19:48.700Z,7.50
2023-09-18T00:22:17.586Z,6.53
2023-09-18T00:24:44.682Z,7.65
2023-09-18T00:27:12.344Z,9.20
2023-09-18T00:29:39.001Z,9.97
2023-09-18T00:32:06.210Z,7.22
2023-09-18T00:34:35.498Z,7.50
2023-09-18T00:37:04.415Z,9.57
2023-09-18T00:39:33.526Z,9.10
2023-09-18T00:42:03.609Z,6.10
2023-09-18T00:44:30.788Z,8.50
2023-09-18T00:46:59.839Z,6.68
2023-09-18T00:49:26.704Z,9.75
2023-09-18T00:51:53.537Z,6.63
2023-09-18T00:54:20.861Z,7.60
2023-09-18T00:56:49.662Z,6.53
2023-09-18T00:59:18.522Z,5.93
2023-09-18T01:01:45.846Z,7.82
2023-09-18T01:04:14.339Z,7.32
2023-09-18T01:06:43.402Z,7.87
2023-09-18T01:09:16.243Z,7.78
2023-09-18T01:11:51.461Z,7.05
2023-09-18T01:14:50.711Z,6.22
2023-09-18T01:17:17.939Z,8.60
2023-09-18T01:19:48.833Z,6.20
2023-09-18T01:22:19.590Z,7.65
2023-09-18T01:24:51.032Z,6.93
2023-09-18T01:27:21.490Z,7.13
2023-09-18T01:29:57.605Z,7.85
2023-09-18T01:32:28.857Z,6.27
2023-09-18T01:34:58.183Z,6.18
2023-09-18T01:37:28.792Z,7.25
2023-09-18T01:39:59.110Z,8.05
2023-09-18T01:42:31.076Z,6.95
2023-09-18T01:44:57.705Z,9.73
2023-09-18T01:47:24.694Z,7.28
2023-09-18T01:49:51.419Z,8.70
2023-09-18T01:52:18.527Z,8.52
2023-09-18T01:54:45.619Z,8.32
2023-09-18T01:57:14.738Z,6.57
2023-09-18T01:59:46.231Z,7.82
2023-09-18T02:02:25.709Z,8.27
2023-09-18T02:05:07.472Z,8.68
2023-09-18T02:07:39.394Z,7.75
2023-09-18T02:10:06.882Z,8.50
2023-09-18T02:12:33.515Z,6.65
2023-09-18T02:15:05.291Z,10.05
2023-09-18T02:17:32.021Z,7.78
2023-09-18T02:19:58.770Z,6.97
2023-09-18T02:22:27.823Z,7.43
2023-09-18T02:24:54.434Z,5.97
2023-09-18T02:27:23.394Z,9.45
2023-09-18T02:29:51.216Z,8.35
2023-09-18T02:32:17.891Z,7.43
2023-09-18T02:34:44.607Z,7.67
2023-09-18T02:37:11.241Z,7.35
2023-09-18T02:39:40.826Z,8.93
2023-09-18T02:42:07.535Z,6.20
2023-09-18T02:44:34.177Z,8.02
2023-09-18T02:47:03.873Z,7.20
2023-09-18T02:49:31.069Z,6.43
2023-09-18T02:51:57.761Z,6.18
2023-09-18T02:54:24.404Z,7.25
2023-09-18T02:56:51.060Z,6.93
2023-09-18T02:59:17.768Z,8.60
2023-09-18T03:01:44.534Z,6.38
2023-09-18T03:04:11.232Z,6.95
2023-09-18T03:06:40.978Z,6.85
2023-09-18T03:09:07.620Z,8.75
2023-09-18T03:11:34.339Z,6.03
2023-09-18T03:14:00.962Z,6.45
2023-09-18T03:16:27.723Z,7.93
2023-09-18T03:18:54.786Z,6.45
2023-09-18T03:21:21.670Z,6.35
2023-09-18T03:23:51.292Z,6.73
2023-09-18T03:26:20.338Z,7.75
2023-09-18T03:28:47.055Z,5.93
2023-09-18T03:31:13.688Z,6.57
2023-09-18T03:33:40.353Z,6.57
2023-09-18T03:36:07.518Z,6.03
2023-09-18T03:38:36.549Z,6.07
2023-09-18T03:41:03.350Z,6.65
2023-09-18T03:43:30.097Z,7.25
2023-09-18T03:46:03.750Z,7.40
2023-09-18T03:48:32.121Z,5.33
2023-09-18T03:50:58.754Z,5.95
2023-09-18T03:53:25.440Z,7.97
2023-09-18T03:55:53.358Z,6.55
2023-09-18T03:58:21.145Z,6.28
2023-09-18T04:00:50.567Z,6.33
2023-09-18T04:03:22.228Z,6.32
2023-09-18T04:05:48.916Z,7.00
2023-09-18T04:08:15.547Z,7.57
2023-09-18T04:10:42.283Z,6.05
2023-09-18T04:13:09.897Z,7.03
2023-09-18T04:15:39.512Z,7.13
2023-09-18T04:18:09.026Z,9.13
2023-09-18T04:20:37.069Z,6.25
2023-09-18T04:23:31.681Z,6.35
2023-09-18T04:25:59.575Z,5.47
2023-09-18T04:28:26.310Z,6.53
2023-09-18T04:30:55.288Z,6.13
2023-09-18T04:33:22.968Z,5.93
2023-09-18T04:35:49.965Z,6.60
2023-09-18T04:38:16.890Z,7.17
2023-09-18T04:40:43.711Z,6.40
2023-09-18T04:43:10.383Z,6.38
2023-09-18T04:45:37.091Z,6.35
2023-09-18T04:48:04.376Z,7.10
2023-09-18T04:50:31.778Z,5.40
2023-09-18T04:52:58.931Z,7.18
2023-09-18T04:55:25.772Z,6.60
2023-09-18T04:57:54.654Z,6.47
2023-09-18T05:00:24.621Z,6.78
2023-09-18T05:02:51.609Z,8.03
2023-09-18T05:05:19.327Z,6.18
2023-09-18T05:07:50.750Z,7.22
2023-09-18T05:10:17.728Z,6.30
2023-09-18T05:12:44.374Z,5.72
2023-09-18T05:15:11.403Z,6.00
2023-09-18T05:17:43.769Z,6.38
2023-09-18T05:20:15.374Z,6.93
2023-09-18T05:22:44.469Z,6.32
2023-09-18T05:25:11.426Z,5.43
2023-09-18T05:27:45.897Z,6.23
2023-09-18T05:30:19.379Z,6.15
2023-09-18T05:32:49.151Z,5.53
2023-09-18T05:35:18.944Z,6.05
2023-09-18T05:37:47.873Z,5.57
2023-09-18T05:40:15.315Z,7.60
2023-09-18T05:42:45.024Z,8.20
2023-09-18T05:45:12.954Z,4.55
2023-09-18T05:47:40.456Z,6.22
2023-09-18T05:50:09.119Z,7.00
2023-09-18T05:52:36.229Z,4.77
2023-09-18T05:55:08.730Z,6.78
2023-09-18T05:57:36.083Z,5.65
2023-09-18T06:00:05.071Z,6.30
2023-09-18T06:02:31.844Z,5.93
2023-09-18T06:05:01.256Z,8.40
2023-09-18T06:07:28.819Z,9.07
2023-09-18T06:09:55.704Z,8.77
2023-09-18T06:12:22.396Z,10.65
2023-09-18T06:14:49.586Z,7.95
2023-09-18T06:17:16.579Z,9.67
2023-09-18T06:19:43.967Z,10.93
2023-09-18T06:22:10.658Z,9.43
2023-09-18T06:24:37.799Z,9.20
2023-09-18T06:27:07.845Z,10.05
2023-09-18T06:29:35.614Z,10.97
2023-09-18T06:32:02.679Z,10.18
2023-09-18T06:34:29.717Z,9.35
2023-09-18T06:36:59.082Z,6.90
2023-09-18T06:39:27.238Z,8.00
2023-09-18T06:41:53.893Z,12.07
2023-09-18T06:44:20.546Z,10.25
2023-09-18T06:46:47.169Z,10.13
2023-09-18T06:49:13.919Z,9.10
2023-09-18T06:51:43.928Z,10.00
2023-09-18T06:54:11.284Z,9.80
2023-09-18T06:56:38.175Z,10.38
2023-09-18T06:59:10.007Z,6.97
2023-09-18T07:01:36.757Z,9.23
2023-09-18T07:04:05.671Z,9.18
2023-09-18T07:06:32.472Z,8.77
2023-09-18T07:08:59.150Z,8.00
2023-09-18T07:11:26.369Z,7.10
2023-09-18T07:13:53.354Z,8.35
2023-09-18T07:16:22.513Z,8.43
2023-09-18T07:18:49.192Z,6.73
2023-09-18T07:21:15.880Z,7.32
2023-09-18T07:23:42.647Z,10.40
2023-09-18T07:26:11.761Z,8.15
2023-09-18T07:28:42.885Z,8.88
2023-09-18T07:31:13.330Z,7.90
2023-09-18T07:33:40.477Z,7.03
2023-09-18T07:36:07.365Z,9.93
2023-09-18T07:38:34.392Z,6.75
2023-09-18T07:41:01.125Z,7.20
2023-09-18T07:43:27.858Z,9.23
2023-09-18T07:45:55.831Z,8.60
2023-09-18T07:48:23.951Z,6.97
2023-09-18T07:50:53.287Z,8.73
2023-09-18T07:53:20.376Z,10.45
2023-09-18T07:55:56.930Z,9.63
2023-09-18T07:58:29.272Z,11.90
2023-09-18T08:00:58.880Z,11.02
2023-09-18T08:03:26.318Z,10.60
2023-09-18T08:05:56.852Z,10.93
2023-09-18T08:08:28.024Z,9.10
2023-09-18T08:11:00.646Z,45.65
2023-09-18T08:13:29.136Z,90.45
2023-09-18T08:15:55.957Z,85.53
2023-09-18T08:18:28.008Z,97.75
2023-09-18T08:20:55.783Z,105.80
2023-09-18T08:23:22.539Z,115.18
2023-09-18T08:25:49.748Z,86.47
2023-09-18T08:28:18.814Z,58.15
2023-09-18T08:30:48.449Z,42.22
2023-09-18T08:33:15.869Z,53.60
2023-09-18T08:35:42.686Z,35.70
2023-09-18T08:38:11.873Z,43.45
2023-09-18T08:40:38.579Z,87.53
2023-09-18T08:43:05.954Z,97.72
2023-09-18T08:45:54.281Z,74.30
2023-09-18T08:48:22.449Z,39.38
2023-09-18T08:50:54.663Z,38.28
2023-09-18T08:53:21.427Z,20.58
2023-09-18T08:55:50.424Z,17.65
2023-09-18T08:58:20.750Z,15.87
2023-09-18T09:00:47.475Z,11.40
2023-09-18T09:03:14.315Z,7.47
2023-09-18T09:05:41.590Z,10.77
2023-09-18T09:08:08.559Z,16.00
2023-09-18T09:10:35.204Z,78.13
2023-09-18T09:13:06.045Z,63.55
2023-09-18T09:15:51.145Z,65.75
2023-09-18T09:18:17.977Z,77.07
2023-09-18T09:21:02.663Z,80.53
2023-09-18T09:23:53.199Z,59.10
2023-09-18T09:26:22.709Z,41.25
2023-09-18T09:28:49.835Z,45.00
2023-09-18T09:31:31.733Z,33.53
2023-09-18T09:34:33.025Z,12.93
2023-09-18T09:37:02.176Z,15.37
2023-09-18T09:39:29.066Z,22.02
2023-09-18T09:41:55.842Z,16.45
2023-09-18T09:44:22.758Z,12.10
2023-09-18T09:46:50.835Z,38.33
2023-09-18T09:49:18.897Z,79.03
2023-09-18T09:51:45.575Z,54.05
2023-09-18T09:54:15.272Z,51.70
2023-09-18T09:56:51.926Z,54.00
2023-09-18T09:59:22.380Z,47.17
2023-09-18T10:01:51.514Z,38.37
2023-09-18T10:04:23.563Z,42.85
2023-09-18T10:06:58.252Z,62.70
2023-09-18T10:09:29.845Z,34.85
2023-09-18T10:11:58.350Z,17.90
2023-09-18T10:14:43.562Z,10.67
2023-09-18T10:17:19.194Z,10.27
2023-09-18T10:20:01.001Z,24.88
2023-09-18T10:22:39.135Z,25.52
2023-09-18T10:25:21.787Z,56.60
2023-09-18T10:27:50.521Z,39.97
2023-09-18T10:30:20.500Z,39.92
2023-09-18T10:32:50.856Z,29.48
2023-09-18T10:35:20.994Z,11.10
2023-09-18T10:37:52.257Z,20.40
2023-09-18T10:40:19.822Z,23.40
2023-09-18T10:42:48.173Z,22.13
2023-09-18T10:45:17.060Z,26.55
2023-09-18T10:47:49.251Z,48.20
2023-09-18T10:50:28.613Z,32.65
2023-09-18T10:52:59.309Z,20.43
2023-09-18T10:55:27.571Z,14.05
2023-09-18T10:58:03.650Z,27.88
2023-09-18T11:00:37.510Z,68.13
2023-09-18T11:03:11.285Z,48.30
2023-09-18T11:05:38.147Z,22.57
2023-09-18T11:08:27.930Z,11.00
2023-09-18T11:10:57.902Z,7.25
2023-09-18T11:13:36.511Z,7.28
2023-09-18T11:16:28.204Z,6.50
2023-09-18T11:18:55.214Z,7.17
2023-09-18T11:21:29.280Z,6.90
2023-09-18T11:24:14.701Z,5.07
2023-09-18T11:26:46.165Z,53.65
2023-09-18T11:29:20.473Z,42.55
2023-09-18T11:31:52.032Z,123.80
2023-09-18T11:34:29.654Z,39.92
2023-09-18T11:36:59.198Z,26.55
2023-09-18T11:39:38.633Z,119.20
2023-09-18T11:42:18.965Z,15.35
2023-09-18T11:44:51.547Z,11.47
2023-09-18T11:47:21.446Z,13.15
2023-09-18T11:49:59.139Z,14.32
2023-09-18T11:52:30.829Z,26.75
2023-09-18T11:54:59.682Z,9.23
2023-09-18T11:57:26.547Z,19.33
2023-09-18T11:59:53.624Z,15.20
2023-09-18T12:02:29.660Z,10.23
2023-09-18T12:04:57.026Z,7.78
2023-09-18T12:07:25.826Z,7.82
2023-09-18T12:09:52.786Z,5.87
2023-09-18T12:12:19.551Z,4.43
2023-09-18T12:14:46.402Z,5.75
2023-09-18T12:17:17.263Z,5.30
2023-09-18T12:19:56.858Z,6.93
2023-09-18T12:22:31.016Z,5.20
2023-09-18T12:25:16.640Z,4.60
2023-09-18T12:27:44.254Z,3.22
2023-09-18T12:30:12.564Z,5.07
2023-09-18T12:32:40.369Z,3.42
2023-09-18T12:35:14.446Z,2.73
2023-09-18T12:37:42.525Z,3.67
2023-09-18T12:40:23.063Z,5.25
2023-09-18T12:42:51.178Z,3.67
2023-09-18T12:45:18.508Z,4.22
2023-09-18T12:47:45.781Z,3.73
2023-09-18T12:50:15.673Z,4.82
2023-09-18T12:52:42.826Z,6.55
2023-09-18T12:55:23.614Z,5.07
2023-09-18T12:57:51.055Z,5.20
2023-09-18T13:00:27.848Z,7.50
2023-09-18T13:02:58.425Z,9.70
2023-09-18T13:05:34.028Z,7.18
2023-09-18T13:08:07.177Z,9.15
2023-09-18T13:10:47.553Z,7.47
2023-09-18T13:13:26.410Z,9.37
2023-09-18T13:15:56.262Z,12.18
2023-09-18T13:18:25.727Z,8.50
2023-09-18T13:20:55.715Z,7.70
2023-09-18T13:23:31.377Z,8.48
2023-09-18T13:26:10.894Z,7.67
2023-09-18T13:28:41.906Z,7.07
2023-09-18T13:31:10.767Z,5.72
2023-09-18T13:33:41.548Z,6.15
2023-09-18T13:36:10.848Z,8.68
2023-09-18T13:38:37.581Z,5.47
2023-09-18T13:41:06.700Z,8.38
2023-09-18T13:43:37.198Z,7.93
2023-09-18T13:46:06.574Z,7.45
2023-09-18T13:48:34.375Z,5.70
2023-09-18T13:51:02.809Z,8.80
2023-09-18T13:53:31.003Z,16.35
2023-09-18T13:55:57.908Z,14.05
2023-09-18T13:58:24.646Z,11.55
2023-09-18T14:00:54.371Z,9.45
2023-09-18T14:03:21.709Z,6.17
2023-09-18T14:05:48.542Z,7.03
2023-09-18T14:08:15.210Z,7.82
2023-09-18T14:10:44.084Z,8.75
2023-09-18T14:13:10.959Z,6.50
2023-09-18T14:15:40.304Z,7.90
2023-09-18T14:18:07.034Z,5.50
2023-09-18T14:20:33.775Z,5.85
2023-09-18T14:23:04.505Z,5.40
2023-09-18T14:25:31.447Z,5.00
2023-09-18T14:27:58.066Z,5.27
2023-09-18T14:30:32.632Z,10.20
2023-09-18T14:33:02.721Z,8.30
2023-09-18T14:35:29.566Z,10.80
2023-09-18T14:37:57.033Z,9.40
2023-09-18T14:40:25.902Z,8.37
2023-09-18T14:42:52.655Z,5.00
2023-09-18T14:45:19.347Z,9.32
2023-09-18T14:47:46.053Z,7.53
2023-09-18T14:50:12.756Z,9.20
2023-09-18T14:52:39.407Z,6.70
2023-09-18T14:55:06.734Z,5.32
2023-09-18T14:57:35.685Z,4.80
2023-09-18T15:00:07.552Z,4.93
2023-09-18T15:02:36.595Z,4.03
2023-09-18T15:05:06.129Z,5.67
2023-09-18T15:07:35.317Z,5.22
2023-09-18T15:10:02.046Z,4.38
2023-09-18T15:12:30.960Z,3.88
2023-09-18T15:15:00.061Z,4.03
2023-09-18T15:17:29.427Z,4.47
2023-09-18T15:19:58.383Z,5.00
2023-09-18T15:22:26.242Z,4.47
2023-09-18T15:24:53.102Z,4.13
2023-09-18T15:27:29.422Z,5.07
2023-09-18T15:29:58.450Z,5.73
2023-09-18T15:32:25.258Z,2.10
2023-09-18T15:34:52.207Z,4.05
2023-09-18T15:37:23.712Z,4.22
2023-09-18T15:39:52.312Z,3.15
2023-09-18T15:42:21.095Z,2.87
2023-09-18T15:44:50.037Z,4.95
2023-09-18T15:47:16.655Z,4.30
2023-09-18T15:49:43.274Z,5.07
2023-09-18T15:52:12.079Z,10.43
2023-09-18T15:54:41.319Z,9.07
2023-09-18T15:57:10.264Z,11.10
2023-09-18T15:59:39.099Z,8.98
2023-09-18T16:02:07.833Z,6.63
2023-09-18T16:04:35.758Z,6.30
2023-09-18T16:07:02.554Z,6.03
2023-09-18T16:09:31.429Z,6.13
2023-09-18T16:11:58.056Z,6.28
2023-09-18T16:14:24.743Z,6.88
2023-09-18T16:16:52.394Z,6.55
2023-09-18T16:19:19.286Z,6.73
2023-09-18T16:21:48.140Z,13.52
2023-09-18T16:24:16.980Z,13.60
2023-09-18T16:26:43.723Z,62.00
2023-09-18T16:29:12.495Z,170.65
2023-09-18T16:31:39.137Z,150.67
2023-09-18T16:34:08.481Z,116.60
2023-09-18T16:36:35.349Z,150.88
2023-09-18T16:39:02.356Z,154.18
2023-09-18T16:41:29.329Z,86.97
2023-09-18T16:43:56.108Z,76.83
2023-09-18T16:46:25.186Z,66.07
2023-09-18T16:48:54.939Z,51.35
2023-09-18T16:51:22.307Z,28.75
2023-09-18T16:53:54.036Z,21.75
2023-09-18T16:56:20.788Z,30.10
2023-09-18T16:58:47.671Z,22.73
2023-09-18T17:01:14.537Z,19.83
2023-09-18T17:03:41.461Z,13.38
2023-09-18T17:06:08.506Z,10.70
2023-09-18T17:08:35.278Z,8.77
2023-09-18T17:11:02.016Z,13.73
2023-09-18T17:13:28.622Z,7.53
2023-09-18T17:15:55.305Z,13.32
2023-09-18T17:18:22.180Z,8.27
2023-09-18T17:20:50.941Z,9.50
2023-09-18T17:23:18.525Z,11.27
2023-09-18T17:25:45.555Z,8.77
2023-09-18T17:28:16.006Z,7.40
2023-09-18T17:30:42.671Z,13.60
2023-09-18T17:33:11.663Z,8.30
2023-09-18T17:35:40.351Z,9.45
2023-09-18T17:38:07.311Z,9.77
2023-09-18T17:40:33.962Z,16.63
2023-09-18T17:43:00.606Z,17.42
2023-09-18T17:45:27.386Z,15.47
2023-09-18T17:47:56.216Z,16.48
2023-09-18T17:50:25.872Z,14.15
2023-09-18T17:52:53.156Z,12.63
2023-09-18T17:55:20.694Z,12.90
2023-09-18T17:57:58.762Z,12.70
2023-09-18T18:00:28.771Z,11.82
2023-09-18T18:02:57.839Z,11.05
2023-09-18T18:05:29.202Z,9.82
2023-09-18T18:07:56.709Z,20.08
2023-09-18T18:10:25.484Z,12.47
2023-09-18T18:12:54.327Z,12.77
2023-09-18T18:15:21.211Z,11.25
2023-09-18T18:17:49.158Z,15.02
2023-09-18T18:20:17.008Z,12.80
2023-09-18T18:22:43.644Z,9.53
2023-09-18T18:25:10.763Z,9.40
2023-09-18T18:27:39.646Z,13.13
2023-09-18T18:30:06.901Z,8.63
2023-09-18T18:32:38.533Z,13.52
2023-09-18T18:35:05.625Z,10.97
2023-09-18T18:37:33.130Z,9.10
2023-09-18T18:39:59.762Z,10.48
2023-09-18T18:42:27.145Z,13.45
2023-09-18T18:44:54.421Z,11.00
2023-09-18T18:47:21.093Z,8.83
2023-09-18T18:49:48.599Z,10.85
2023-09-18T18:52:18.620Z,12.07
2023-09-18T18:54:45.335Z,10.55
2023-09-18T18:57:12.068Z,13.75
2023-09-18T18:59:41.267Z,9.63
2023-09-18T19:02:07.979Z,8.93
2023-09-18T19:04:35.882Z,10.68
2023-09-18T19:07:05.940Z,11.60
2023-09-18T19:09:35.342Z,15.82
2023-09-18T19:12:04.192Z,11.67
2023-09-18T19:14:30.840Z,16.98
2023-09-18T19:17:00.825Z,10.95
2023-09-18T19:19:27.499Z,11.75
2023-09-18T19:21:54.130Z,8.20
2023-09-18T19:24:21.351Z,9.73
2023-09-18T19:26:48.927Z,10.32
2023-09-18T19:29:17.381Z,9.38
2023-09-18T19:31:44.059Z,8.90
2023-09-18T19:34:16.370Z,9.25
2023-09-18T19:37:02.676Z,6.20
2023-09-18T19:39:33.761Z,10.40
2023-09-18T19:42:03.890Z,8.00
2023-09-18T19:44:45.279Z,7.05
2023-09-18T19:47:11.983Z,9.45
2023-09-18T19:49:38.725Z,6.13
2023-09-18T19:52:08.444Z,9.57
2023-09-18T19:54:35.075Z,6.78
2023-09-18T19:57:01.905Z,9.35
2023-09-18T19:59:28.607Z,8.05
2023-09-18T20:02:04.672Z,5.97
2023-09-18T20:04:31.643Z,6.85
2023-09-18T20:06:58.337Z,6.85
2023-09-18T20:09:28.418Z,8.05
2023-09-18T20:11:55.331Z,9.32
2023-09-18T20:14:31.870Z,10.30
2023-09-18T20:16:59.325Z,9.40
2023-09-18T20:19:28.228Z,5.90
2023-09-18T20:21:54.985Z,7.93
2023-09-18T20:24:21.687Z,8.82
2023-09-18T20:26:49.722Z,6.17
2023-09-18T20:29:19.012Z,6.97
2023-09-18T20:31:46.448Z,7.75
2023-09-18T20:34:13.796Z,7.00
2023-09-18T20:36:42.594Z,6.53
2023-09-18T20:39:11.839Z,8.37
2023-09-18T20:41:38.576Z,8.18
2023-09-18T20:44:08.354Z,6.57
2023-09-18T20:46:37.677Z,4.60
2023-09-18T20:49:05.137Z,5.57
2023-09-18T20:51:32.969Z,7.27
2023-09-18T20:54:02.311Z,6.22
2023-09-18T20:56:29.397Z,8.02
2023-09-18T20:59:02.515Z,7.45
2023-09-18T21:01:31.948Z,5.97
2023-09-18T21:03:59.054Z,5.90
2023-09-18T21:06:30.553Z,7.25
2023-09-18T21:08:57.498Z,7.13
2023-09-18T21:11:24.135Z,8.90
2023-09-18T21:13:50.780Z,8.75
2023-09-18T21:16:18.023Z,7.67
2023-09-18T21:18:45.668Z,6.63
2023-09-18T21:21:17.766Z,9.68
2023-09-18T21:23:47.147Z,5.80
2023-09-18T21:26:13.914Z,4.65
2023-09-18T21:28:41.791Z,7.33
2023-09-18T21:31:09.907Z,4.93
2023-09-18T21:33:37.650Z,5.15
2023-09-18T21:36:20.888Z,6.93
2023-09-18T21:38:52.690Z,5.75
2023-09-18T21:41:24.027Z,8.33
2023-09-18T21:43:50.786Z,5.90
2023-09-18T21:46:17.453Z,5.72
2023-09-18T21:48:44.885Z,6.00
2023-09-18T21:51:19.759Z,6.22
2023-09-18T21:53:47.765Z,6.13
2023-09-18T21:56:14.752Z,6.13
2023-09-18T21:58:44.280Z,7.95
2023-09-18T22:01:13.915Z,6.45
2023-09-18T22:03:41.359Z,6.25
2023-09-18T22:06:08.783Z,6.37
2023-09-18T22:08:39.169Z,4.93
2023-09-18T22:11:08.874Z,5.88
2023-09-18T22:13:38.697Z,5.85
2023-09-18T22:16:09.810Z,4.80
2023-09-18T22:18:39.801Z,7.63
2023-09-18T22:21:12.370Z,6.65
2023-09-18T22:23:39.579Z,8.00
2023-09-18T22:26:07.302Z,8.73
2023-09-18T22:28:37.997Z,7.20
2023-09-18T22:31:04.896Z,6.73
2023-09-18T22:33:34.686Z,6.85
2023-09-18T22:36:13.137Z,9.75
2023-09-18T22:38:55.905Z,10.57
2023-09-18T22:41:24.728Z,9.10
2023-09-18T22:44:29.207Z,7.10
2023-09-18T22:47:36.933Z,6.75
2023-09-18T22:50:42.460Z,6.53
2023-09-18T22:53:09.194Z,5.85
2023-09-18T22:55:41.102Z,9.70
2023-09-18T22:58:10.281Z,7.60
2023-09-18T23:00:40.331Z,7.90
2023-09-18T23:03:11.172Z,10.43
2023-09-18T23:05:38.351Z,9.50
2023-09-18T23:08:09.316Z,5.65
2023-09-18T23:10:40.845Z,5.63
2023-09-18T23:13:07.817Z,6.60
2023-09-18T23:15:35.708Z,8.35
2023-09-18T23:18:07.250Z,6.95
2023-09-18T23:20:36.591Z,9.52
2023-09-18T23:23:03.919Z,8.53
2023-09-18T23:25:34.007Z,8.63
2023-09-18T23:28:01.075Z,10.50
2023-09-18T23:30:30.244Z,7.72
2023-09-18T23:33:05.859Z,9.25
2023-09-18T23:35:36.068Z,10.67
2023-09-18T23:38:08.989Z,7.50
2023-09-18T23:40:40.386Z,11.15
2023-09-18T23:43:17.562Z,8.57
2023-09-18T23:45:46.568Z,7.50
2023-09-18T23:48:24.009Z,9.17
2023-09-18T23:50:51.554Z,7.45
2023-09-18T23:53:20.195Z,7.55
2023-09-18T23:55:49.143Z,8.48
2023-09-18T23:58:18.488Z,9.25
